createdAt,value
2018-09-20T00:00:18.951Z,5.90
2018-09-20T00:02:50.950Z,5.50
2018-09-20T00:05:22.981Z,7.97
2018-09-20T00:07:54.974Z,6.13
2018-09-20T00:10:26.999Z,6.17
2018-09-20T00:12:59.049Z,5.40
2018-09-20T00:15:31.069Z,5.00
2018-09-20T00:18:03.128Z,5.10
2018-09-20T00:20:35.189Z,5.23
2018-09-20T00:23:07.227Z,5.57
2018-09-20T00:25:39.302Z,5.67
2018-09-20T00:28:11.327Z,5.93
2018-09-20T00:30:43.361Z,4.93
2018-09-20T00:33:15.516Z,5.40
2018-09-20T00:35:47.551Z,4.80
2018-09-20T00:38:19.613Z,5.13
2018-09-20T00:40:51.694Z,6.00
2018-09-20T00:43:23.724Z,5.00
2018-09-20T00:45:55.754Z,4.90
2018-09-20T00:48:27.810Z,5.50
2018-09-20T00:50:59.883Z,4.97
2018-09-20T00:53:31.918Z,4.70
2018-09-20T00:56:03.950Z,5.60
2018-09-20T00:58:35.946Z,5.37
2018-09-20T01:01:08.082Z,5.33
2018-09-20T01:03:40.075Z,5.10
2018-09-20T01:06:12.128Z,5.07
2018-09-20T01:08:44.110Z,5.13
2018-09-20T01:11:16.135Z,5.07
2018-09-20T01:13:48.498Z,5.37
2018-09-20T01:16:20.555Z,5.07
2018-09-20T01:18:52.575Z,5.30
2018-09-20T01:21:24.669Z,5.20
2018-09-20T01:23:56.670Z,4.90
2018-09-20T01:26:28.686Z,5.00
2018-09-20T01:29:00.695Z,5.23
2018-09-20T01:31:32.754Z,5.43
2018-09-20T01:34:05.949Z,5.70
2018-09-20T01:36:38.178Z,5.50
2018-09-20T01:39:12.547Z,5.47
2018-09-20T01:41:47.305Z,6.17
2018-09-20T01:44:19.472Z,5.60
2018-09-20T01:46:51.634Z,5.13
2018-09-20T01:49:23.707Z,5.53
2018-09-20T01:51:55.708Z,5.57
2018-09-20T01:54:27.791Z,5.37
2018-09-20T01:56:59.829Z,5.37
2018-09-20T01:59:31.846Z,5.67
2018-09-20T02:02:03.943Z,5.50
2018-09-20T02:04:35.999Z,6.30
2018-09-20T02:07:08.050Z,5.60
2018-09-20T02:09:40.114Z,5.83
2018-09-20T02:12:12.146Z,5.30
2018-09-20T02:14:44.167Z,6.03
2018-09-20T02:17:16.195Z,5.67
2018-09-20T02:19:48.220Z,5.47
2018-09-20T02:22:20.259Z,5.50
2018-09-20T02:24:52.277Z,5.47
2018-09-20T02:27:24.335Z,5.97
2018-09-20T02:29:56.325Z,5.83
2018-09-20T02:32:28.329Z,5.93
2018-09-20T02:35:00.358Z,5.57
2018-09-20T02:37:32.335Z,5.50
2018-09-20T02:40:04.403Z,6.17
2018-09-20T02:42:36.522Z,5.50
2018-09-20T02:45:08.547Z,6.20
2018-09-20T02:47:40.644Z,6.20
2018-09-20T02:50:12.719Z,6.10
2018-09-20T02:52:44.732Z,5.47
2018-09-20T02:55:16.754Z,6.23
2018-09-20T02:57:48.763Z,5.83
2018-09-20T03:00:20.830Z,6.20
2018-09-20T03:02:52.816Z,6.37
2018-09-20T03:05:24.873Z,6.40
2018-09-20T03:07:56.888Z,7.10
2018-09-20T03:10:28.937Z,7.23
2018-09-20T03:13:00.988Z,7.23
2018-09-20T03:15:32.994Z,6.70
2018-09-20T03:18:05.019Z,8.30
2018-09-20T03:20:37.055Z,7.00
2018-09-20T03:23:09.062Z,7.97
2018-09-20T03:25:41.225Z,7.07
2018-09-20T03:28:13.286Z,7.97
2018-09-20T03:30:45.491Z,7.67
2018-09-20T03:33:17.423Z,7.53
2018-09-20T03:35:49.452Z,8.20
2018-09-20T03:38:21.514Z,8.17
2018-09-20T03:40:53.535Z,7.20
2018-09-20T03:43:25.564Z,8.27
2018-09-20T03:45:57.682Z,8.03
2018-09-20T03:48:29.715Z,7.77
2018-09-20T03:51:01.769Z,9.03
2018-09-20T03:53:33.831Z,8.90
2018-09-20T03:56:05.863Z,8.30
2018-09-20T03:58:37.903Z,8.67
2018-09-20T04:01:09.990Z,8.67
2018-09-20T04:03:42.041Z,8.70
2018-09-20T04:06:14.071Z,8.00
2018-09-20T04:08:46.063Z,10.03
2018-09-20T04:11:18.120Z,8.17
2018-09-20T04:13:50.117Z,8.50
2018-09-20T04:16:22.197Z,9.07
2018-09-20T04:18:54.218Z,8.63
2018-09-20T04:21:31.160Z,8.73
2018-09-20T04:24:05.032Z,8.70
2018-09-20T04:26:37.078Z,8.83
2018-09-20T04:29:09.104Z,9.07
2018-09-20T04:31:41.202Z,9.70
2018-09-20T04:34:13.246Z,9.50
2018-09-20T04:36:45.340Z,10.23
2018-09-20T04:39:17.350Z,10.63
2018-09-20T04:41:49.462Z,10.30
2018-09-20T04:44:21.522Z,9.40
2018-09-20T04:46:53.574Z,10.43
2018-09-20T04:49:25.659Z,9.67
2018-09-20T04:51:57.669Z,9.37
2018-09-20T04:54:29.836Z,10.37
2018-09-20T04:57:02.272Z,10.47
2018-09-20T04:59:34.943Z,9.90
2018-09-20T05:02:07.014Z,9.60
2018-09-20T05:04:39.889Z,9.67
2018-09-20T05:07:12.013Z,9.60
2018-09-20T05:09:44.131Z,9.87
2018-09-20T05:15:14.380Z,10.87
2018-09-20T05:17:46.375Z,10.80
2018-09-20T05:20:18.454Z,10.53
2018-09-20T05:22:50.416Z,10.40
2018-09-20T05:25:22.504Z,10.23
2018-09-20T05:27:54.543Z,9.87
2018-09-20T05:30:26.562Z,9.73
2018-09-20T05:32:58.628Z,8.80
2018-09-20T05:35:30.687Z,9.83
2018-09-20T05:38:02.727Z,9.83
2018-09-20T05:40:34.738Z,9.50
2018-09-20T05:43:06.903Z,9.97
2018-09-20T05:45:38.937Z,10.23
2018-09-20T05:48:10.966Z,10.27
2018-09-20T05:50:42.960Z,9.03
2018-09-20T05:53:15.041Z,8.93
2018-09-20T05:58:25.898Z,8.83
2018-09-20T06:00:58.025Z,9.17
2018-09-20T06:03:30.181Z,9.10
2018-09-20T06:06:02.215Z,8.93
2018-09-20T06:08:34.289Z,8.70
2018-09-20T06:11:06.282Z,9.47
2018-09-20T06:13:38.331Z,8.50
2018-09-20T06:16:10.402Z,8.90
2018-09-20T06:18:42.563Z,9.07
2018-09-20T06:21:14.602Z,8.13
2018-09-20T06:23:46.728Z,8.73
2018-09-20T06:26:18.733Z,8.97
2018-09-20T06:28:50.812Z,9.10
2018-09-20T06:31:22.969Z,9.90
2018-09-20T06:33:54.992Z,9.40
2018-09-20T06:36:27.011Z,9.50
2018-09-20T06:38:59.097Z,10.30
2018-09-20T06:41:31.134Z,8.93
2018-09-20T06:44:03.197Z,9.27
2018-09-20T06:46:35.223Z,9.47
2018-09-20T06:49:07.246Z,9.43
2018-09-20T06:51:39.323Z,8.93
2018-09-20T06:54:11.421Z,8.07
2018-09-20T06:56:43.440Z,7.73
2018-09-20T06:59:15.488Z,7.05
2018-09-20T07:01:47.523Z,7.70
2018-09-20T07:04:19.587Z,6.83
2018-09-20T07:06:51.622Z,7.00
2018-09-20T07:09:23.781Z,7.72
2018-09-20T07:11:55.798Z,6.35
2018-09-20T07:14:27.815Z,7.05
2018-09-20T07:16:59.970Z,7.20
2018-09-20T07:19:32.011Z,6.60
2018-09-20T07:22:04.145Z,6.80
2018-09-20T07:24:36.182Z,7.00
2018-09-20T07:27:08.210Z,7.08
2018-09-20T07:29:40.275Z,5.50
2018-09-20T07:32:12.279Z,6.08
2018-09-20T07:34:44.331Z,5.10
2018-09-20T07:37:16.330Z,5.85
2018-09-20T07:39:48.358Z,6.72
2018-09-20T07:42:20.401Z,5.87
2018-09-20T07:44:52.464Z,6.28
2018-09-20T07:47:24.585Z,6.40
2018-09-20T07:49:56.629Z,5.22
2018-09-20T07:52:28.741Z,4.90
2018-09-20T07:55:00.803Z,5.08
2018-09-20T07:57:32.810Z,5.83
2018-09-20T08:00:04.931Z,5.67
2018-09-20T08:02:36.943Z,5.12
2018-09-20T08:05:09.100Z,4.67
2018-09-20T08:07:41.122Z,4.78
2018-09-20T08:10:13.350Z,4.80
2018-09-20T08:12:45.458Z,4.80
2018-09-20T08:15:17.518Z,5.22
2018-09-20T08:17:49.613Z,4.72
2018-09-20T08:20:21.666Z,4.50
2018-09-20T08:22:53.754Z,4.40
2018-09-20T08:25:25.892Z,5.12
2018-09-20T08:27:58.030Z,5.37
2018-09-20T08:30:30.073Z,5.10
2018-09-20T08:33:02.117Z,3.65
2018-09-20T08:35:34.270Z,4.70
2018-09-20T08:38:06.403Z,4.92
2018-09-20T08:40:38.556Z,4.03
2018-09-20T08:43:10.576Z,4.30
2018-09-20T08:45:42.618Z,3.50
2018-09-20T08:48:15.877Z,3.87
2018-09-20T08:50:48.038Z,4.40
2018-09-20T08:53:20.374Z,3.90
2018-09-20T08:55:52.415Z,3.22
2018-09-20T08:58:24.438Z,4.87
